• Join FlightAware (Why Join?)
  • Login
  • US Flag 
11:07PM EST


 

Airport Tracker/Info


-or-


 

Live Flight TrackerFlight Track Log ✈ ASQ4252 ✈ 12-Jun-2013 ✈ KPWM - KIAD

Flight Track Log - Related Links

Times and Time Zones

All times are in EDT time to prevent confusion due to time zone crossing. See the ASQ4252 flight status page for this flight to view local times or setup timezone preferences in your user account.

Time Position Orientation Groundspeed Altitude Reporting Facility
EDT Latitude Longitude Course Direction KTS MPH feet Rate Location/Type
05:54AM 43.6519 -70.4342 258° West 205 236 3,600  Level Boston Center
05:55AM 43.7042 -70.7127 281° West  Level FlightAware Approximate
05:55AM 43.6681 -70.5228 284° West 226 260 5,800  Level Boston Center
05:56AM 43.7001 -70.8496 245° Southwest  Level FlightAware Approximate
05:56AM 43.6864 -70.6197 285° West 248 285 8,600  Level Boston Center
05:57AM 43.6635 -70.9840 249° West  Level FlightAware Approximate
05:57AM 43.7067 -70.7139 287° West 261 300 10,400  Level Boston Center
05:58AM 43.6283 -71.1163 258° West  Level FlightAware Approximate
05:58AM 43.7203 -70.7969 283° West 287 330 10,800  Level Boston Center
05:59AM 43.6067 -71.2566 258° West  Level FlightAware Approximate
05:59AM 43.6828 -70.9531 252° West 314 361 12,500  Level Boston Center
06:00AM 43.6489 -71.0686 248° West 341 392 14,500 2,580 Climbing Boston Center
06:01AM 43.6275 -71.1981 257° West 336 387 17,700 2,400 Climbing Boston Center
06:02AM 43.6158 -71.2758 258° West 311 358 19,400 1,740 Climbing Boston Center
06:03AM 43.5878 -71.4111 254° West 306 352 21,200 1,620 Climbing Boston Center
06:04AM 43.5639 -71.5347 255° West 319 367 22,700 1,500 Climbing Boston Center
06:05AM 43.4958 -71.6303 226° Southwest 331 381 24,200 1,500 Climbing Boston Center
06:06AM 43.4214 -71.7225 222° Southwest 343 395 25,700 1,500 Climbing Boston Center
06:07AM 43.3469 -71.8119 221° Southwest 357 411 27,200 1,500 Climbing Boston Center
06:08AM 43.2683 -71.9069 221° Southwest 367 422 28,700 1,500 Climbing Boston Center
06:09AM 43.1914 -71.9958 220° Southwest 367 422 30,200 1,500 Climbing Boston Center
06:10AM 43.1167 -72.0875 222° Southwest 367 422 31,700 1,500 Climbing Boston Center
06:11AM 43.0378 -72.1789 220° Southwest 367 422 33,200 1,440 Climbing Boston Center
06:12AM 42.9631 -72.2669 221° Southwest 367 422 34,600 1,200 Climbing Boston Center
06:13AM 42.8964 -72.3550 224° Southwest 352 405 35,600 660 Climbing Boston Center
06:14AM 42.8172 -72.4428 219° Southwest 357 411 36,000 180 Climbing Boston Center
06:15AM 42.7400 -72.5389 222° Southwest 370 426 36,000  Level Boston Center
06:16AM 42.6461 -72.6461 220° Southwest 389 448 36,000  Level Boston Center
06:17AM 42.5564 -72.7389 217° Southwest 415 478 36,000  Level Boston Center
06:18AM 42.4664 -72.8425 220° Southwest 427 491 36,000  Level Boston Center
06:19AM 42.3783 -72.9461 221° Southwest 427 491 36,000  Level Boston Center
06:20AM 42.2800 -73.0603 221° Southwest 433 498 36,000  Level Boston Center
06:21AM 42.1958 -73.1603 221° Southwest 421 484 36,000  Level Boston Center
06:22AM 42.1097 -73.2572 220° Southwest 416 479 36,000  Level Boston Center
06:23AM 42.0236 -73.3567 221° Southwest 409 471 36,000  Level Boston Center
06:24AM 41.9375 -73.4503 219° Southwest 409 471 36,000  Level Boston Center
06:25AM 41.8531 -73.5467 220° Southwest 409 471 36,000  Level Boston Center
06:26AM 41.7731 -73.6453 223° Southwest 409 471 36,000  Level Boston Center
06:27AM 41.6464 -73.8414 229° Southwest 393 452 36,000  Level New York Center
06:28AM 41.5833 -73.9494 232° Southwest 393 452 36,000  Level New York Center
06:29AM 41.5114 -74.0594 229° Southwest 393 452 36,000  Level New York Center
06:30AM 41.4439 -74.1669 230° Southwest 388 447 36,000  Level New York Center
06:31AM 41.3761 -74.2794 231° Southwest 388 447 36,000  Level New York Center
06:32AM 41.3019 -74.3861 227° Southwest 388 447 36,000  Level New York Center
06:33AM 41.2342 -74.4928 230° Southwest 388 447 36,000  Level New York Center
06:34AM 41.1661 -74.6019 230° Southwest 393 452 36,000  Level New York Center
06:35AM 41.0958 -74.7081 229° Southwest 393 452 36,000 -660 Level New York Center
06:36AM 41.0297 -74.8200 232° Southwest 387 445 34,700 -1,440 Descending New York Center
06:37AM 40.9633 -74.9286 231° Southwest 387 445 33,200 -1,560 Descending New York Center
06:38AM 40.8969 -75.0369 231° Southwest 387 445 31,700 -1,560 Descending New York Center
06:39AM 40.8283 -75.1481 231° Southwest 393 452 30,200 -1,440 Descending New York Center
06:40AM 40.7683 -75.2483 232° Southwest 393 452 28,800 -1,560 Descending New York Center
06:41AM 40.6972 -75.3639 231° Southwest 386 444 27,200 -1,620 Descending New York Center
06:42AM 40.6325 -75.4744 232° Southwest 386 444 25,600 -1,740 Descending New York Center
06:43AM 40.5678 -75.5794 231° Southwest 386 444 23,800 -1,980 Descending New York Center
06:44AM 40.5008 -75.6867 231° Southwest 381 438 21,800 -1,740 Descending New York Center
06:45AM 40.4406 -75.7858 231° Southwest 375 432 20,300 -960 Descending New York Center
06:46AM 40.3756 -75.8875 230° Southwest 368 423 20,000 -180 Descending New York Center
06:47AM 40.3108 -75.9861 229° Southwest 368 423 20,000 -600 Level New York Center
06:48AM 40.2522 -76.0850 232° Southwest 360 414 18,900 -1,260 Descending New York Center
06:49AM 40.1964 -76.1706 230° Southwest 351 404 17,500 -1,140 Descending New York Center
06:52AM 40.0667 -76.4167 235° Southwest 316 364 15,000 -780 Descending Potomac TRACON
06:53AM 40.0167 -76.5167 237° Southwest 321 369 15,000  Level Potomac TRACON
06:54AM 39.9667 -76.6167 237° Southwest 331 381 15,000  Level Potomac TRACON
06:55AM 39.9333 -76.7000 242° Southwest 335 386 15,000  Level Potomac TRACON
06:56AM 39.8833 -76.8000 237° Southwest 335 386 15,100  Climbing Potomac TRACON
06:57AM 39.8333 -76.9167 241° Southwest 334 384 15,000 -120 Descending Potomac TRACON
06:58AM 39.8000 -76.9833 237° Southwest 332 382 14,900 -840 Descending Potomac TRACON
06:59AM 39.7500 -77.0833 237° Southwest 324 373 13,500 -1,680 Descending Potomac TRACON
07:00AM 39.7167 -77.1667 243° Southwest 305 351 11,600 -1,740 Descending Potomac TRACON
07:01AM 39.6667 -77.2500 232° Southwest 288 331 10,300 -1,500 Descending Potomac TRACON
07:02AM 39.6000 -77.3000 210° Southwest 280 322 8,800 -1,500 Descending Potomac TRACON
07:03AM 39.5167 -77.3167 189° South 282 325 7,300 -1,080 Descending Potomac TRACON
07:03AM 39.4667 -77.3500 207° Southwest 280 322 6,800 -840 Descending Potomac TRACON
07:04AM 39.4000 -77.3667 191° South 268 308 5,800 -900 Descending Potomac TRACON
07:05AM 39.3167 -77.3667 180° South 272 313 5,100 -420 Descending Potomac TRACON
07:06AM 39.2333 -77.3667 180° South 277 319 5,000 -540 Descending Potomac TRACON
07:07AM 39.1667 -77.3667 180° South 273 314 4,100 -480 Descending Potomac TRACON
07:08AM 39.0833 -77.3500 171° South 275 316 4,100  Level Potomac TRACON
07:09AM 39.0000 -77.3667 189° South 270 311 4,100  Level Potomac TRACON
07:10AM 38.9333 -77.3500 169° South 253 291 4,100  Level Potomac TRACON
07:11AM 38.8667 -77.3667 191° South 248 285 4,100  Level Potomac TRACON
07:12AM 38.8000 -77.3667 180° South 249 287 4,100 -360 Level Potomac TRACON
07:13AM 38.7500 -77.4000 207° Southwest 220 253 3,400 -720 Descending Potomac TRACON
07:14AM 38.7833 -77.4333 322° Northwest 218 251 2,700 -720 Descending Potomac TRACON